createdAt,value
2023-01-01T00:00:09.818Z,573.09
2023-01-01T00:00:19.838Z,573.13
2023-01-01T00:00:29.966Z,573.29
2023-01-01T00:00:39.841Z,572.85
2023-01-01T00:00:49.950Z,573.17
2023-01-01T00:00:59.798Z,572.60
2023-01-01T00:01:09.802Z,572.66
2023-01-01T00:01:19.800Z,572.09
2023-01-01T00:01:29.802Z,572.59
2023-01-01T00:01:40.021Z,572.12
2023-01-01T00:01:49.826Z,571.98
2023-01-01T00:01:59.822Z,571.74
2023-01-01T00:02:09.852Z,571.69
2023-01-01T00:02:19.845Z,571.89
2023-01-01T00:02:36.447Z,571.83
2023-01-01T00:02:40.809Z,572.20
2023-01-01T00:02:49.822Z,572.97
2023-01-01T00:02:59.819Z,573.23
2023-01-01T00:03:09.813Z,572.02
2023-01-01T00:03:19.819Z,572.34
2023-01-01T00:03:29.838Z,572.63
2023-01-01T00:03:39.851Z,572.41
2023-01-01T00:03:49.870Z,572.79
2023-01-01T00:03:59.887Z,572.68
2023-01-01T00:04:09.857Z,573.61
2023-01-01T00:04:19.827Z,572.21
2023-01-01T00:04:29.814Z,571.86
2023-01-01T00:04:39.829Z,571.64
2023-01-01T00:04:49.820Z,572.39
2023-01-01T00:04:59.814Z,572.89
2023-01-01T00:05:09.834Z,572.18
2023-01-01T00:05:19.815Z,572.97
2023-01-01T00:05:29.839Z,573.21
2023-01-01T00:05:39.814Z,574.33
2023-01-01T00:05:49.816Z,573.94
2023-01-01T00:05:59.822Z,574.09
2023-01-01T00:06:09.819Z,574.25
2023-01-01T00:06:19.819Z,573.94
2023-01-01T00:06:29.849Z,573.69
2023-01-01T00:06:39.821Z,573.09
2023-01-01T00:06:49.824Z,572.77
2023-01-01T00:06:59.821Z,572.74
2023-01-01T00:07:10.554Z,572.96
2023-01-01T00:07:19.827Z,573.82
2023-01-01T00:07:29.835Z,573.20
2023-01-01T00:07:39.857Z,572.99
2023-01-01T00:07:49.918Z,573.04
2023-01-01T00:08:04.620Z,573.71
2023-01-01T00:08:10.835Z,573.51
2023-01-01T00:08:19.824Z,573.64
2023-01-01T00:08:29.855Z,572.74
2023-01-01T00:08:39.825Z,572.79
2023-01-01T00:08:49.836Z,572.40
2023-01-01T00:08:59.853Z,572.77
2023-01-01T00:09:09.839Z,572.73
2023-01-01T00:09:19.831Z,572.92
2023-01-01T00:09:29.833Z,571.86
2023-01-01T00:09:39.844Z,573.04
2023-01-01T00:09:49.833Z,573.19
2023-01-01T00:09:59.839Z,573.04
2023-01-01T00:10:09.833Z,572.81
2023-01-01T00:10:19.832Z,572.80
2023-01-01T00:10:29.876Z,573.01
2023-01-01T00:10:39.835Z,573.72
2023-01-01T00:10:49.838Z,573.13
2023-01-01T00:10:59.841Z,573.07
2023-01-01T00:11:09.847Z,573.18
2023-01-01T00:11:19.845Z,572.41
2023-01-01T00:11:29.839Z,573.40
2023-01-01T00:11:39.846Z,573.22
2023-01-01T00:11:49.849Z,573.09
2023-01-01T00:11:59.846Z,572.59
2023-01-01T00:12:09.845Z,573.03
2023-01-01T00:12:19.844Z,572.69
2023-01-01T00:12:29.844Z,572.35
2023-01-01T00:12:39.865Z,572.58
2023-01-01T00:12:49.859Z,572.30
2023-01-01T00:12:59.867Z,572.24
2023-01-01T00:13:09.852Z,572.12
2023-01-01T00:13:19.849Z,572.20
2023-01-01T00:13:29.849Z,572.59
2023-01-01T00:13:39.868Z,573.18
2023-01-01T00:13:49.851Z,572.85
2023-01-01T00:13:59.851Z,574.48
2023-01-01T00:14:12.469Z,574.19
2023-01-01T00:14:19.858Z,572.69
2023-01-01T00:14:29.853Z,573.25
2023-01-01T00:14:39.876Z,573.25
2023-01-01T00:14:49.855Z,572.93
2023-01-01T00:14:59.851Z,572.94
2023-01-01T00:15:09.862Z,572.58
2023-01-01T00:15:19.862Z,572.53
2023-01-01T00:15:29.863Z,572.98
2023-01-01T00:15:39.879Z,574.46
2023-01-01T00:15:49.859Z,573.59
2023-01-01T00:15:59.853Z,572.94
2023-01-01T00:16:09.913Z,572.82
2023-01-01T00:16:19.895Z,573.43
2023-01-01T00:16:29.881Z,572.66
2023-01-01T00:16:39.946Z,573.19
2023-01-01T00:16:49.936Z,573.36
2023-01-01T00:16:59.952Z,573.34
2023-01-01T00:17:09.873Z,572.90
2023-01-01T00:17:19.857Z,572.85
2023-01-01T00:17:29.881Z,573.04
2023-01-01T00:17:39.875Z,572.38
2023-01-01T00:17:49.870Z,573.10
2023-01-01T00:17:59.879Z,572.74
2023-01-01T00:18:09.876Z,572.53
2023-01-01T00:18:19.869Z,571.88
2023-01-01T00:18:29.870Z,572.49
2023-01-01T00:18:39.885Z,572.41
2023-01-01T00:18:49.871Z,571.78
2023-01-01T00:18:59.889Z,572.18
2023-01-01T00:19:09.880Z,571.75
2023-01-01T00:19:19.884Z,571.30
2023-01-01T00:19:29.871Z,571.63
2023-01-01T00:19:39.885Z,571.56
2023-01-01T00:19:49.873Z,571.76
2023-01-01T00:19:59.873Z,571.86
2023-01-01T00:20:09.888Z,571.78
2023-01-01T00:20:19.879Z,571.97
2023-01-01T00:20:34.906Z,572.09
2023-01-01T00:20:40.885Z,572.36
2023-01-01T00:20:49.884Z,572.28
2023-01-01T00:20:59.878Z,572.51
2023-01-01T00:21:09.880Z,572.23
2023-01-01T00:21:19.914Z,572.55
2023-01-01T00:21:29.881Z,572.10
2023-01-01T00:21:39.879Z,571.80
2023-01-01T00:21:49.880Z,572.14
2023-01-01T00:22:02.188Z,573.28
2023-01-01T00:22:44.151Z,573.23
2023-01-01T00:22:53.201Z,572.91
2023-01-01T00:22:55.768Z,572.58
2023-01-01T00:22:56.859Z,572.59
2023-01-01T00:23:00.883Z,572.68
2023-01-01T00:23:09.892Z,573.06
2023-01-01T00:23:19.892Z,572.95
2023-01-01T00:23:29.895Z,572.89
2023-01-01T00:23:39.884Z,572.64
2023-01-01T00:23:49.888Z,572.12
2023-01-01T00:23:59.907Z,572.59
2023-01-01T00:24:09.892Z,572.75
2023-01-01T00:24:19.899Z,573.26
2023-01-01T00:24:29.903Z,573.16
2023-01-01T00:24:39.896Z,572.84
2023-01-01T00:24:49.898Z,572.49
2023-01-01T00:24:59.898Z,573.04
2023-01-01T00:25:09.892Z,573.20
2023-01-01T00:25:19.918Z,573.25
2023-01-01T00:25:29.900Z,572.29
2023-01-01T00:25:39.889Z,572.85
2023-01-01T00:25:49.905Z,573.16
2023-01-01T00:25:59.903Z,572.45
2023-01-01T00:26:09.890Z,572.48
2023-01-01T00:26:19.895Z,572.09
2023-01-01T00:26:34.815Z,572.81
2023-01-01T00:26:40.902Z,572.84
2023-01-01T00:26:49.897Z,572.34
2023-01-01T00:26:59.919Z,572.35
2023-01-01T00:27:09.897Z,572.19
2023-01-01T00:27:19.896Z,572.21
2023-01-01T00:27:29.947Z,572.40
2023-01-01T00:27:39.903Z,571.62
2023-01-01T00:27:49.904Z,571.39
2023-01-01T00:27:59.923Z,571.92
2023-01-01T00:28:09.920Z,572.57
2023-01-01T00:28:19.917Z,571.99
2023-01-01T00:28:29.910Z,572.06
2023-01-01T00:28:39.939Z,572.13
2023-01-01T00:28:49.911Z,572.09
2023-01-01T00:28:59.913Z,571.85
2023-01-01T00:29:09.918Z,572.29
2023-01-01T00:29:19.905Z,571.99
2023-01-01T00:29:29.915Z,572.42
2023-01-01T00:29:39.914Z,572.18
2023-01-01T00:29:49.905Z,571.95
2023-01-01T00:29:59.924Z,572.17
2023-01-01T00:30:09.909Z,572.70
2023-01-01T00:30:19.928Z,572.92
2023-01-01T00:30:29.924Z,572.57
2023-01-01T00:30:39.912Z,572.07
2023-01-01T00:30:49.916Z,572.79
2023-01-01T00:30:59.928Z,572.20
2023-01-01T00:31:09.919Z,572.24
2023-01-01T00:31:19.966Z,572.36
2023-01-01T00:31:29.993Z,571.97
2023-01-01T00:31:39.963Z,571.30
2023-01-01T00:31:49.944Z,571.73
2023-01-01T00:31:59.967Z,571.56
2023-01-01T00:32:11.637Z,571.72
2023-01-01T00:32:22.859Z,570.82
2023-01-01T00:32:29.979Z,571.99
2023-01-01T00:32:39.922Z,571.56
2023-01-01T00:32:54.759Z,571.98
2023-01-01T00:33:00.932Z,571.64
2023-01-01T00:33:09.935Z,571.53
2023-01-01T00:33:19.929Z,571.74
2023-01-01T00:33:29.939Z,572.17
2023-01-01T00:33:39.929Z,571.79
2023-01-01T00:33:49.934Z,571.84
2023-01-01T00:33:59.947Z,572.01
2023-01-01T00:34:09.936Z,571.29
2023-01-01T00:34:19.936Z,571.45
2023-01-01T00:34:29.944Z,571.40
2023-01-01T00:34:39.932Z,571.52
2023-01-01T00:34:49.933Z,571.31
2023-01-01T00:34:59.951Z,571.17
2023-01-01T00:35:09.948Z,571.43
2023-01-01T00:35:19.950Z,570.76
2023-01-01T00:35:29.952Z,570.97
2023-01-01T00:35:39.974Z,571.58
2023-01-01T00:35:49.945Z,571.19
2023-01-01T00:35:59.953Z,571.59
2023-01-01T00:36:09.946Z,571.53
2023-01-01T00:36:19.960Z,571.62
2023-01-01T00:36:29.947Z,573.03
2023-01-01T00:36:39.944Z,571.65
2023-01-01T00:36:49.969Z,571.53
2023-01-01T00:36:59.950Z,571.63
2023-01-01T00:37:09.949Z,571.46
2023-01-01T00:37:19.960Z,571.57
2023-01-01T00:37:29.947Z,570.98
2023-01-01T00:37:46.426Z,571.63
2023-01-01T00:37:50.976Z,571.58
2023-01-01T00:37:59.946Z,571.54
2023-01-01T00:38:09.950Z,571.41
2023-01-01T00:38:19.950Z,571.46
2023-01-01T00:38:29.951Z,571.77
2023-01-01T00:38:39.948Z,570.95
2023-01-01T00:38:49.952Z,571.42
2023-01-01T00:38:59.966Z,570.85
2023-01-01T00:39:09.949Z,570.61
2023-01-01T00:39:19.965Z,571.04
2023-01-01T00:39:29.958Z,570.60
2023-01-01T00:39:39.978Z,570.93
2023-01-01T00:39:50.001Z,571.38
2023-01-01T00:39:59.954Z,571.36
2023-01-01T00:40:09.960Z,571.04
2023-01-01T00:40:19.975Z,571.32
2023-01-01T00:40:29.966Z,570.88
2023-01-01T00:40:40.020Z,570.90
2023-01-01T00:40:49.962Z,571.13
2023-01-01T00:40:59.957Z,570.73
2023-01-01T00:41:09.968Z,570.93
2023-01-01T00:41:19.960Z,571.20
2023-01-01T00:41:29.981Z,571.25
2023-01-01T00:41:39.963Z,570.84
2023-01-01T00:41:49.965Z,570.64
2023-01-01T00:41:59.969Z,571.38
2023-01-01T00:42:09.962Z,571.06
2023-01-01T00:42:19.961Z,570.87
2023-01-01T00:42:29.963Z,571.03
2023-01-01T00:42:39.969Z,571.09
2023-01-01T00:42:49.973Z,571.14
2023-01-01T00:42:59.983Z,571.09
2023-01-01T00:43:09.969Z,571.14
2023-01-01T00:43:19.970Z,571.36
2023-01-01T00:43:29.963Z,570.98
2023-01-01T00:43:39.965Z,571.19
2023-01-01T00:43:49.977Z,570.84
2023-01-01T00:43:59.971Z,571.03
2023-01-01T00:44:09.966Z,570.72
2023-01-01T00:44:20.586Z,571.35
2023-01-01T00:44:29.966Z,570.86
2023-01-01T00:44:39.977Z,571.98
2023-01-01T00:44:49.979Z,571.76
2023-01-01T00:44:59.972Z,571.87
2023-01-01T00:45:12.253Z,571.67
2023-01-01T00:45:22.553Z,571.51
2023-01-01T00:45:29.996Z,571.76
2023-01-01T00:45:40.063Z,572.59
2023-01-01T00:45:50.005Z,572.09
2023-01-01T00:46:00.003Z,572.18
2023-01-01T00:46:10.034Z,571.91
2023-01-01T00:46:20.085Z,571.52
2023-01-01T00:46:30.030Z,571.72
2023-01-01T00:46:39.983Z,571.52
2023-01-01T00:46:50.001Z,571.60
2023-01-01T00:46:59.985Z,571.72
2023-01-01T00:47:09.981Z,571.54
2023-01-01T00:47:20.003Z,571.01
2023-01-01T00:47:29.988Z,571.01
2023-01-01T00:47:40.009Z,571.02
2023-01-01T00:47:50.080Z,570.99
2023-01-01T00:48:00.015Z,572.86
2023-01-01T00:48:09.991Z,571.33
2023-01-01T00:48:19.984Z,571.30
2023-01-01T00:48:29.985Z,571.90
2023-01-01T00:48:39.993Z,571.24
2023-01-01T00:48:49.982Z,571.19
2023-01-01T00:48:59.988Z,570.68
2023-01-01T00:49:09.997Z,570.62
2023-01-01T00:49:20.030Z,570.88
2023-01-01T00:49:29.989Z,571.40
2023-01-01T00:49:39.991Z,571.68
2023-01-01T00:49:49.992Z,570.81
2023-01-01T00:50:00.003Z,570.60
2023-01-01T00:50:09.999Z,570.37
2023-01-01T00:50:19.998Z,570.52
2023-01-01T00:50:30.002Z,570.54
2023-01-01T00:50:40.002Z,570.16
2023-01-01T00:50:50.022Z,570.74
2023-01-01T00:51:00.019Z,570.57
2023-01-01T00:51:10.000Z,570.83
2023-01-01T00:51:20.000Z,570.73
2023-01-01T00:51:36.578Z,571.08
2023-01-01T00:51:41.022Z,571.12
2023-01-01T00:51:50.027Z,571.18
2023-01-01T00:52:00.024Z,573.48
2023-01-01T00:52:10.004Z,572.21
2023-01-01T00:52:20.008Z,571.75
2023-01-01T00:52:30.005Z,571.44
2023-01-01T00:52:40.004Z,571.62
2023-01-01T00:52:50.036Z,571.81
2023-01-01T00:53:00.026Z,571.91
2023-01-01T00:53:10.018Z,572.24
2023-01-01T00:53:20.011Z,572.32
2023-01-01T00:53:30.015Z,571.82
2023-01-01T00:53:40.053Z,572.02
2023-01-01T00:53:50.015Z,571.94
2023-01-01T00:54:00.012Z,571.18
2023-01-01T00:54:10.009Z,571.31
2023-01-01T00:54:20.017Z,572.49
2023-01-01T00:54:30.011Z,571.86
2023-01-01T00:54:40.019Z,571.82
2023-01-01T00:54:50.025Z,571.70
2023-01-01T00:55:00.021Z,571.82
2023-01-01T00:55:10.013Z,572.03
2023-01-01T00:55:20.053Z,571.91
2023-01-01T00:55:30.017Z,571.91
2023-01-01T00:55:40.031Z,571.54
2023-01-01T00:55:50.056Z,571.40
2023-01-01T00:56:00.049Z,571.43
2023-01-01T00:56:10.033Z,571.45
2023-01-01T00:56:20.029Z,571.43
2023-01-01T00:56:30.029Z,571.31
2023-01-01T00:56:40.043Z,572.02
2023-01-01T00:56:50.029Z,571.97
2023-01-01T00:57:00.034Z,571.38
2023-01-01T00:57:10.046Z,571.79
2023-01-01T00:57:20.032Z,572.43
2023-01-01T00:57:30.022Z,571.70
2023-01-01T00:57:40.051Z,571.49
2023-01-01T00:57:50.065Z,570.89
2023-01-01T00:58:00.047Z,570.42
2023-01-01T00:58:10.035Z,570.98
2023-01-01T00:58:20.029Z,570.83
2023-01-01T00:58:30.038Z,571.62
2023-01-01T00:58:40.080Z,571.28
2023-01-01T00:59:00.695Z,570.90
2023-01-01T00:59:01.922Z,570.84
2023-01-01T00:59:10.044Z,570.72
2023-01-01T00:59:25.282Z,570.92
2023-01-01T00:59:31.041Z,570.94
2023-01-01T00:59:40.041Z,570.77
2023-01-01T00:59:50.038Z,571.23
2023-01-01T01:00:00.053Z,571.13
2023-01-01T01:00:10.079Z,570.58
2023-01-01T01:00:20.036Z,570.94
2023-01-01T01:00:30.061Z,570.53
2023-01-01T01:00:40.049Z,571.99
2023-01-01T01:00:50.087Z,571.59
2023-01-01T01:01:00.151Z,571.00
2023-01-01T01:01:10.113Z,571.20
2023-01-01T01:01:20.178Z,571.22
2023-01-01T01:01:30.246Z,571.20
2023-01-01T01:01:40.153Z,572.45
2023-01-01T01:01:50.177Z,571.66
2023-01-01T01:02:00.273Z,571.38
2023-01-01T01:02:10.240Z,571.35
2023-01-01T01:02:20.222Z,571.14
2023-01-01T01:02:30.211Z,570.65
2023-01-01T01:02:40.281Z,571.94
2023-01-01T01:02:50.094Z,570.93
2023-01-01T01:03:00.143Z,571.55
2023-01-01T01:03:10.098Z,571.37
2023-01-01T01:03:20.115Z,570.84
2023-01-01T01:03:30.053Z,570.72
2023-01-01T01:03:40.070Z,571.08
2023-01-01T01:03:50.051Z,570.56
2023-01-01T01:04:00.050Z,570.80
2023-01-01T01:04:10.084Z,571.42
2023-01-01T01:04:20.053Z,570.84
2023-01-01T01:04:30.056Z,571.33
2023-01-01T01:04:40.075Z,570.68
2023-01-01T01:04:50.053Z,570.47
2023-01-01T01:05:00.069Z,570.65
2023-01-01T01:05:10.073Z,570.67
2023-01-01T01:05:20.060Z,570.77
2023-01-01T01:05:30.059Z,570.78
2023-01-01T01:05:40.061Z,570.32
2023-01-01T01:05:50.059Z,571.34
2023-01-01T01:06:00.076Z,571.38
2023-01-01T01:06:10.068Z,570.70
2023-01-01T01:06:20.073Z,571.11
2023-01-01T01:06:30.075Z,571.02
2023-01-01T01:06:40.059Z,571.17
2023-01-01T01:06:50.060Z,570.78
2023-01-01T01:07:00.102Z,570.36
2023-01-01T01:07:10.066Z,571.47
2023-01-01T01:07:20.086Z,570.72
2023-01-01T01:07:30.068Z,571.21
2023-01-01T01:07:40.104Z,570.99
2023-01-01T01:07:50.076Z,570.60
2023-01-01T01:08:00.123Z,570.65
2023-01-01T01:08:10.065Z,570.51
2023-01-01T01:08:23.022Z,570.74
2023-01-01T01:08:31.574Z,570.62
2023-01-01T01:08:40.088Z,570.64
2023-01-01T01:08:50.080Z,570.77
2023-01-01T01:09:00.106Z,571.21
2023-01-01T01:09:10.079Z,571.60
2023-01-01T01:09:20.077Z,571.03
2023-01-01T01:09:30.078Z,570.82
2023-01-01T01:09:40.073Z,570.57
2023-01-01T01:09:50.077Z,570.72
2023-01-01T01:10:00.127Z,570.63
2023-01-01T01:10:10.079Z,570.11
2023-01-01T01:10:20.082Z,570.02
2023-01-01T01:10:30.078Z,570.03
2023-01-01T01:10:40.082Z,570.69
2023-01-01T01:10:50.102Z,570.10
2023-01-01T01:11:00.117Z,570.45
2023-01-01T01:11:10.087Z,570.29
2023-01-01T01:11:20.085Z,570.28
2023-01-01T01:11:30.106Z,570.55
2023-01-01T01:11:40.086Z,570.29
2023-01-01T01:11:50.087Z,570.36
2023-01-01T01:12:17.267Z,570.16
2023-01-01T01:12:18.691Z,570.01
2023-01-01T01:12:21.101Z,570.38
2023-01-01T01:12:30.108Z,570.17
2023-01-01T01:12:40.089Z,570.36
2023-01-01T01:12:50.093Z,570.41
2023-01-01T01:13:00.107Z,569.86
2023-01-01T01:13:10.101Z,569.90
2023-01-01T01:13:20.099Z,570.14
2023-01-01T01:13:30.104Z,570.33
2023-01-01T01:13:40.097Z,570.12
2023-01-01T01:13:50.113Z,570.04
2023-01-01T01:14:00.111Z,569.93
2023-01-01T01:14:10.118Z,570.15
2023-01-01T01:14:20.119Z,570.09
2023-01-01T01:14:30.104Z,572.48
2023-01-01T01:14:40.102Z,570.49
2023-01-01T01:14:50.119Z,570.57
2023-01-01T01:15:00.131Z,570.38
2023-01-01T01:15:10.120Z,570.46
2023-01-01T01:15:20.118Z,570.44
2023-01-01T01:15:30.110Z,570.41
2023-01-01T01:15:40.121Z,570.50
2023-01-01T01:15:56.121Z,570.23
2023-01-01T01:16:01.114Z,570.29
2023-01-01T01:16:10.125Z,570.46
2023-01-01T01:16:20.211Z,571.56
2023-01-01T01:16:30.143Z,570.63
2023-01-01T01:16:40.186Z,570.88
2023-01-01T01:16:50.172Z,570.53
2023-01-01T01:17:00.178Z,570.73
2023-01-01T01:17:10.132Z,570.40
2023-01-01T01:17:20.128Z,570.41
2023-01-01T01:17:30.135Z,570.34
2023-01-01T01:17:40.139Z,570.33
2023-01-01T01:17:50.152Z,570.43
2023-01-01T01:18:00.146Z,570.46
2023-01-01T01:18:10.114Z,570.48
2023-01-01T01:18:20.117Z,570.21
2023-01-01T01:18:30.135Z,570.05
2023-01-01T01:18:40.120Z,570.42
2023-01-01T01:18:50.132Z,570.70
2023-01-01T01:19:00.150Z,570.40
2023-01-01T01:19:10.126Z,570.81
2023-01-01T01:19:20.134Z,570.92
2023-01-01T01:19:30.123Z,570.68
2023-01-01T01:19:40.133Z,571.10
2023-01-01T01:19:50.127Z,570.88
2023-01-01T01:20:00.207Z,571.13
2023-01-01T01:20:10.133Z,570.74
2023-01-01T01:20:20.131Z,570.19
2023-01-01T01:20:30.146Z,570.15
2023-01-01T01:20:40.132Z,570.08
2023-01-01T01:20:50.135Z,570.20
2023-01-01T01:21:00.146Z,570.02
2023-01-01T01:21:10.151Z,570.28
2023-01-01T01:21:20.148Z,570.65
2023-01-01T01:21:30.149Z,570.95
2023-01-01T01:21:40.138Z,570.70
2023-01-01T01:21:50.135Z,570.58
2023-01-01T01:22:00.139Z,570.56
2023-01-01T01:22:10.137Z,570.23
2023-01-01T01:22:24.328Z,570.32
2023-01-01T01:22:31.151Z,570.31
2023-01-01T01:22:40.138Z,569.92
2023-01-01T01:22:50.141Z,569.86
2023-01-01T01:23:00.165Z,569.88
2023-01-01T01:23:10.153Z,569.92
2023-01-01T01:23:20.141Z,570.02
2023-01-01T01:23:30.168Z,570.00
2023-01-01T01:23:40.151Z,569.83
2023-01-01T01:23:50.143Z,570.01
2023-01-01T01:24:00.175Z,570.46
2023-01-01T01:24:10.149Z,569.96
2023-01-01T01:24:20.144Z,570.22
2023-01-01T01:24:30.160Z,570.50
2023-01-01T01:24:40.151Z,570.62
2023-01-01T01:24:50.149Z,570.50
2023-01-01T01:25:00.173Z,570.49
2023-01-01T01:25:10.159Z,570.38
2023-01-01T01:25:20.148Z,570.32
2023-01-01T01:25:30.152Z,570.17
2023-01-01T01:25:40.173Z,570.51
2023-01-01T01:25:50.155Z,570.15
2023-01-01T01:26:00.154Z,570.78
2023-01-01T01:26:10.169Z,570.46
2023-01-01T01:26:20.196Z,570.27
2023-01-01T01:26:30.165Z,570.46
2023-01-01T01:26:40.159Z,570.12
2023-01-01T01:26:50.157Z,570.18
2023-01-01T01:27:00.160Z,570.35
2023-01-01T01:27:10.159Z,570.37
2023-01-01T01:27:20.167Z,570.42
2023-01-01T01:27:30.161Z,570.57
2023-01-01T01:27:40.165Z,570.33
2023-01-01T01:27:50.178Z,570.89
2023-01-01T01:28:00.168Z,570.79
2023-01-01T01:28:10.166Z,570.52
2023-01-01T01:28:20.167Z,570.03
2023-01-01T01:28:30.164Z,570.61
2023-01-01T01:28:45.423Z,570.58
2023-01-01T01:28:51.184Z,570.36
2023-01-01T01:29:00.163Z,570.05
2023-01-01T01:29:10.184Z,569.72
2023-01-01T01:29:20.167Z,569.42
2023-01-01T01:29:30.178Z,570.51
2023-01-01T01:29:40.175Z,570.73
2023-01-01T01:29:50.173Z,570.64
2023-01-01T01:30:00.190Z,570.53
2023-01-01T01:30:10.203Z,570.70
2023-01-01T01:30:20.176Z,570.72
2023-01-01T01:30:30.249Z,570.84
2023-01-01T01:30:40.288Z,570.74
2023-01-01T01:30:50.231Z,570.81
2023-01-01T01:31:00.240Z,570.84
2023-01-01T01:31:10.211Z,570.99
2023-01-01T01:31:20.261Z,570.87
2023-01-01T01:31:30.178Z,571.04
2023-01-01T01:31:40.182Z,570.82
2023-01-01T01:31:50.188Z,570.39
2023-01-01T01:32:00.179Z,570.44
2023-01-01T01:32:10.184Z,570.32
2023-01-01T01:32:20.183Z,570.32
2023-01-01T01:32:30.209Z,570.21
2023-01-01T01:32:40.188Z,570.33
2023-01-01T01:32:50.190Z,570.18
2023-01-01T01:33:00.187Z,570.77
2023-01-01T01:33:10.207Z,570.55
2023-01-01T01:33:20.193Z,571.10
2023-01-01T01:33:30.189Z,571.46
2023-01-01T01:33:40.191Z,570.87
2023-01-01T01:33:50.195Z,571.04
2023-01-01T01:34:00.196Z,571.05
2023-01-01T01:34:15.921Z,570.97
2023-01-01T01:34:27.232Z,571.09
2023-01-01T01:34:31.216Z,571.00
2023-01-01T01:34:40.199Z,570.69
2023-01-01T01:34:50.201Z,570.95
2023-01-01T01:35:00.245Z,571.05
2023-01-01T01:35:10.204Z,571.37
2023-01-01T01:35:20.201Z,571.90
2023-01-01T01:35:30.201Z,571.57
2023-01-01T01:35:40.212Z,571.19
2023-01-01T01:35:50.216Z,571.61
2023-01-01T01:36:00.206Z,571.31
2023-01-01T01:36:10.207Z,571.16
2023-01-01T01:36:20.206Z,570.94
2023-01-01T01:36:30.234Z,570.61
2023-01-01T01:36:40.211Z,570.69
2023-01-01T01:36:50.209Z,570.44
2023-01-01T01:37:00.207Z,569.78
2023-01-01T01:37:10.218Z,570.15
2023-01-01T01:37:20.226Z,570.16
2023-01-01T01:37:30.210Z,570.44
2023-01-01T01:37:40.238Z,570.43
2023-01-01T01:37:50.226Z,570.43
2023-01-01T01:38:00.220Z,570.33
2023-01-01T01:38:10.231Z,570.34
2023-01-01T01:38:20.221Z,570.48
2023-01-01T01:38:30.228Z,570.27
2023-01-01T01:38:40.230Z,570.85
2023-01-01T01:38:50.221Z,570.71
2023-01-01T01:39:00.242Z,570.36
2023-01-01T01:39:10.240Z,570.25
2023-01-01T01:39:20.252Z,570.40
2023-01-01T01:39:30.218Z,570.11
2023-01-01T01:39:40.243Z,570.87
2023-01-01T01:39:53.764Z,570.36
2023-01-01T01:40:00.232Z,570.76
2023-01-01T01:40:10.223Z,570.49
2023-01-01T01:40:20.225Z,570.00
2023-01-01T01:40:30.224Z,569.71
2023-01-01T01:40:40.223Z,569.62
2023-01-01T01:40:50.236Z,570.07
2023-01-01T01:41:00.225Z,570.39
2023-01-01T01:41:25.748Z,570.12
2023-01-01T01:41:27.948Z,570.38
2023-01-01T01:41:31.252Z,570.76
2023-01-01T01:41:40.226Z,570.52
2023-01-01T01:41:50.268Z,570.61
2023-01-01T01:42:00.234Z,570.60
2023-01-01T01:42:10.232Z,570.53
2023-01-01T01:42:20.238Z,570.00
2023-01-01T01:42:30.238Z,570.17
2023-01-01T01:42:40.238Z,569.78
2023-01-01T01:42:50.242Z,569.54
2023-01-01T01:43:00.238Z,570.70
2023-01-01T01:43:10.275Z,569.91
2023-01-01T01:43:20.249Z,569.68
2023-01-01T01:43:30.246Z,570.09
2023-01-01T01:43:40.279Z,569.81
2023-01-01T01:43:50.244Z,570.60
2023-01-01T01:44:00.271Z,570.07
2023-01-01T01:44:10.257Z,569.68
2023-01-01T01:44:20.252Z,569.95
2023-01-01T01:44:30.246Z,569.64
2023-01-01T01:44:40.247Z,570.07
2023-01-01T01:44:50.278Z,569.92
2023-01-01T01:45:00.259Z,569.81
2023-01-01T01:45:10.245Z,569.42
2023-01-01T01:45:20.255Z,569.82
2023-01-01T01:45:33.426Z,569.71
2023-01-01T01:45:40.316Z,570.16
2023-01-01T01:45:50.286Z,569.56
2023-01-01T01:46:00.255Z,569.65
2023-01-01T01:46:10.281Z,569.75
2023-01-01T01:46:20.275Z,569.53
2023-01-01T01:46:30.303Z,569.88
2023-01-01T01:46:40.252Z,569.55
2023-01-01T01:46:50.271Z,569.88
2023-01-01T01:47:00.260Z,569.69
2023-01-01T01:47:10.253Z,569.82
2023-01-01T01:47:20.255Z,569.34
2023-01-01T01:47:30.257Z,569.12
2023-01-01T01:47:40.256Z,569.37
2023-01-01T01:47:50.285Z,569.76
2023-01-01T01:48:00.261Z,570.14
2023-01-01T01:48:10.259Z,570.15
2023-01-01T01:48:20.261Z,570.52
2023-01-01T01:48:30.284Z,570.53
2023-01-01T01:48:40.265Z,570.35
2023-01-01T01:48:50.279Z,570.35
2023-01-01T01:49:00.268Z,570.24
2023-01-01T01:49:10.266Z,570.45
2023-01-01T01:49:20.266Z,569.93
2023-01-01T01:49:30.292Z,570.63
2023-01-01T01:49:40.270Z,569.95
2023-01-01T01:49:50.267Z,570.58
2023-01-01T01:50:00.285Z,569.92
2023-01-01T01:50:10.278Z,570.05
2023-01-01T01:50:20.285Z,570.29
2023-01-01T01:50:30.275Z,570.59
2023-01-01T01:50:40.271Z,570.42
2023-01-01T01:50:50.278Z,570.19
2023-01-01T01:51:00.274Z,569.83
2023-01-01T01:51:10.267Z,569.96
2023-01-01T01:51:20.269Z,569.83
2023-01-01T01:51:30.280Z,569.97
2023-01-01T01:51:40.279Z,570.32
2023-01-01T01:51:50.279Z,570.05
2023-01-01T01:52:00.279Z,569.78
2023-01-01T01:52:10.273Z,569.92
2023-01-01T01:52:20.283Z,570.04
2023-01-01T01:52:30.273Z,569.82
2023-01-01T01:52:40.280Z,571.10
2023-01-01T01:52:50.279Z,570.15
2023-01-01T01:53:00.330Z,569.93
2023-01-01T01:53:10.293Z,569.95
2023-01-01T01:53:20.275Z,569.90
2023-01-01T01:53:30.278Z,570.06
2023-01-01T01:53:40.282Z,569.92
2023-01-01T01:53:50.282Z,570.03
2023-01-01T01:54:00.315Z,569.88
2023-01-01T01:54:10.283Z,570.04
2023-01-01T01:54:20.286Z,569.75
2023-01-01T01:54:30.282Z,569.75
2023-01-01T01:54:40.285Z,569.76
2023-01-01T01:54:50.287Z,569.98
2023-01-01T01:55:00.318Z,570.06
2023-01-01T01:55:10.298Z,569.68
2023-01-01T01:55:20.285Z,569.71
2023-01-01T01:55:30.292Z,570.06
2023-01-01T01:55:40.324Z,570.28
2023-01-01T01:55:50.286Z,570.49
2023-01-01T01:56:00.288Z,571.01
2023-01-01T01:56:10.307Z,570.33
2023-01-01T01:56:20.292Z,570.32
2023-01-01T01:56:30.309Z,571.40
2023-01-01T01:56:40.311Z,571.06
2023-01-01T01:56:50.294Z,570.55
2023-01-01T01:57:00.292Z,571.42
2023-01-01T01:57:10.328Z,571.63
2023-01-01T01:57:20.297Z,571.88
2023-01-01T01:57:30.298Z,571.78
2023-01-01T01:57:40.326Z,571.40
2023-01-01T01:57:50.304Z,570.61
2023-01-01T01:58:00.328Z,570.75
2023-01-01T01:58:10.305Z,570.71
2023-01-01T01:58:20.302Z,570.42
2023-01-01T01:58:30.324Z,570.48
2023-01-01T01:58:40.312Z,570.39
2023-01-01T01:58:50.302Z,570.37
2023-01-01T01:59:00.337Z,570.66
2023-01-01T01:59:10.323Z,570.90
2023-01-01T01:59:20.306Z,570.40
2023-01-01T01:59:30.323Z,570.40
2023-01-01T01:59:40.315Z,570.40
2023-01-01T01:59:50.308Z,570.34
2023-01-01T02:00:03.680Z,570.65
2023-01-01T02:00:12.015Z,570.57
2023-01-01T02:00:20.312Z,570.53
2023-01-01T02:00:30.318Z,570.41
2023-01-01T02:00:40.323Z,570.39
2023-01-01T02:00:50.314Z,570.41
2023-01-01T02:01:00.428Z,570.45
2023-01-01T02:01:10.457Z,570.63
2023-01-01T02:01:20.471Z,570.50
2023-01-01T02:01:30.379Z,570.81
2023-01-01T02:01:40.460Z,570.82
2023-01-01T02:01:50.394Z,570.90
2023-01-01T02:02:00.516Z,570.79
2023-01-01T02:02:10.505Z,570.55
2023-01-01T02:02:20.508Z,570.14
2023-01-01T02:02:30.496Z,569.91
2023-01-01T02:02:40.572Z,571.34
2023-01-01T02:02:50.443Z,570.62
2023-01-01T02:03:00.418Z,570.39
2023-01-01T02:03:10.351Z,570.16
2023-01-01T02:03:20.370Z,570.11
2023-01-01T02:03:30.379Z,570.61
2023-01-01T02:03:40.340Z,570.02
2023-01-01T02:03:50.328Z,570.34
2023-01-01T02:04:00.334Z,569.99
2023-01-01T02:04:10.324Z,570.34
2023-01-01T02:04:20.325Z,570.54
2023-01-01T02:04:30.343Z,570.58
2023-01-01T02:04:40.325Z,570.35
2023-01-01T02:04:50.325Z,570.39
2023-01-01T02:05:00.331Z,570.08